Autoridad de Aeronautica Civil de Panamá


metar




ESTACIONES DESCRIPCION
MPTO (M) 301200Z VRB02KT 9000 FEW018 SCT080 25/22 Q1010 NOSIG RMK HZ ALQDS=  
MPBO (M)  
MPCH (M)  
MPSA (M)  
MPCE (M)  
MPPN (M) 272300Z 31006KT 9000 SCT015 31/21 RMK HZ ALQDS=  
MPSM (M)  
MPJE (M)  
MPPA (M) 301100Z 01007KT 9999 FEW018 26/23 Q1012  
MPMG (M) 301100Z 34007KT 9999 FEW018 SCT070 26/22 Q1010 NOSIG  
MPDA (M) 301100Z VRB02KT 9999 FEW020 25/20 Q1009  
MPVR (M)  
MPWN FUERA DE SERVICIO  
MPOA (M)  
MPMF (M)  
MPEJ (M)  


 

CLIMATICAS

MPTO

29 MARZO 2020

 

PCPN (mm)

T° MAX

T° MIN

VIENTO MAX (KT)

HORA

VIENTO PREDOM (KT)

0.0

34.5

23.0

32016KT

2100Z

NW 03

 

 

CLIMATICAS

MPMG

29- MARZO - 2020

PCPN (mm)

T° MAX

T° MIN

VIENTO MAX (KT)

HORA

VIENTO PREDOM (KT)-

0.0

33.4

25.4

35018KT

2000Z

NW

 



Contador: 16615